createdAt,value
2022-09-22T00:01:42.761Z,4.90
2022-09-22T00:04:13.133Z,5.25
2022-09-22T00:06:43.410Z,4.40
2022-09-22T00:09:13.975Z,4.97
2022-09-22T00:11:43.444Z,4.68
2022-09-22T00:14:12.699Z,4.47
2022-09-22T00:16:44.925Z,4.80
2022-09-22T00:19:14.221Z,4.50
2022-09-22T00:21:45.391Z,4.70
2022-09-22T00:24:13.850Z,4.57
2022-09-22T00:26:42.537Z,4.90
2022-09-22T00:29:11.275Z,4.40
2022-09-22T00:31:40.641Z,4.70
2022-09-22T00:34:11.073Z,4.78
2022-09-22T00:36:39.408Z,4.30
2022-09-22T00:39:07.854Z,4.35
2022-09-22T00:41:37.380Z,4.32
2022-09-22T00:44:24.328Z,4.10
2022-09-22T00:46:54.162Z,3.97
2022-09-22T00:49:27.776Z,3.55
2022-09-22T00:51:56.174Z,4.20
2022-09-22T00:54:24.641Z,3.80
2022-09-22T00:56:54.463Z,3.80
2022-09-22T00:59:25.312Z,3.58
2022-09-22T01:01:54.028Z,3.17
2022-09-22T01:04:24.126Z,3.38
2022-09-22T01:06:53.000Z,3.83
2022-09-22T01:09:21.590Z,3.78
2022-09-22T01:11:49.942Z,3.33
2022-09-22T01:14:22.626Z,4.00
2022-09-22T01:16:54.458Z,3.72
2022-09-22T01:19:46.493Z,3.67
2022-09-22T01:22:23.957Z,3.25
2022-09-22T01:25:01.339Z,4.20
2022-09-22T01:27:36.437Z,3.50
2022-09-22T01:30:21.274Z,3.72
2022-09-22T01:33:07.477Z,3.72
2022-09-22T01:35:42.704Z,3.40
2022-09-22T01:38:13.157Z,3.40
2022-09-22T01:40:43.625Z,3.30
2022-09-22T01:43:17.350Z,3.47
2022-09-22T01:45:49.350Z,3.25
2022-09-22T01:48:20.777Z,2.90
2022-09-22T01:50:52.168Z,2.75
2022-09-22T01:53:22.514Z,2.92
2022-09-22T01:55:53.037Z,3.30
2022-09-22T01:58:23.448Z,2.90
2022-09-22T02:00:56.707Z,3.10
2022-09-22T02:03:26.997Z,3.10
2022-09-22T02:05:58.138Z,3.20
2022-09-22T02:08:29.486Z,2.90
2022-09-22T02:10:58.970Z,3.20
2022-09-22T02:13:27.676Z,3.20
2022-09-22T02:16:03.734Z,3.53
2022-09-22T02:18:34.447Z,3.20
2022-09-22T02:21:03.843Z,3.10
2022-09-22T02:23:33.323Z,3.67
2022-09-22T02:26:02.805Z,3.53
2022-09-22T02:28:32.869Z,3.47
2022-09-22T02:31:19.671Z,3.42
2022-09-22T02:33:48.650Z,3.75
2022-09-22T02:36:25.733Z,3.25
2022-09-22T02:38:56.451Z,2.97
2022-09-22T02:41:28.297Z,3.15
2022-09-22T02:43:59.625Z,3.40
2022-09-22T02:46:32.311Z,3.50
2022-09-22T02:49:03.438Z,3.40
2022-09-22T02:51:32.886Z,3.58
2022-09-22T02:54:01.799Z,3.22
2022-09-22T02:56:30.398Z,3.38
2022-09-22T02:58:58.946Z,3.42
2022-09-22T03:01:28.727Z,3.53
2022-09-22T03:03:57.143Z,3.25
2022-09-22T03:06:25.467Z,3.30
2022-09-22T03:08:53.813Z,3.13
2022-09-22T03:11:22.154Z,3.08
2022-09-22T03:13:50.591Z,3.70
2022-09-22T03:16:18.955Z,3.35
2022-09-22T03:18:48.710Z,3.47
2022-09-22T03:21:17.055Z,3.25
2022-09-22T03:23:45.412Z,3.65
2022-09-22T03:26:13.733Z,3.28
2022-09-22T03:28:43.936Z,3.28
2022-09-22T03:31:12.477Z,3.50
2022-09-22T03:33:40.885Z,3.17
2022-09-22T03:36:10.602Z,3.25
2022-09-22T03:38:38.942Z,3.22
2022-09-22T03:41:07.499Z,3.40
2022-09-22T03:43:35.899Z,3.58
2022-09-22T03:46:04.565Z,3.47
2022-09-22T03:48:33.311Z,3.60
2022-09-22T03:51:01.625Z,3.70
2022-09-22T03:53:31.352Z,3.58
2022-09-22T03:56:06.421Z,3.60
2022-09-22T03:58:34.854Z,3.63
2022-09-22T04:01:03.227Z,3.50
2022-09-22T04:03:31.665Z,3.33
2022-09-22T04:05:59.988Z,3.10
2022-09-22T04:08:28.578Z,3.97
2022-09-22T04:10:59.955Z,3.67
2022-09-22T04:13:28.514Z,3.60
2022-09-22T04:15:56.892Z,3.85
2022-09-22T04:18:26.589Z,3.53
2022-09-22T04:20:58.202Z,3.13
2022-09-22T04:23:26.822Z,4.05
2022-09-22T04:25:55.148Z,3.80
2022-09-22T04:28:24.999Z,4.13
2022-09-22T04:30:53.459Z,3.50
2022-09-22T04:33:21.902Z,3.28
2022-09-22T04:35:50.660Z,3.85
2022-09-22T04:38:19.334Z,4.00
2022-09-22T04:40:49.531Z,3.40
2022-09-22T04:43:17.884Z,3.50
2022-09-22T04:45:48.844Z,3.83
2022-09-22T04:48:17.792Z,3.78
2022-09-22T04:50:48.218Z,3.42
2022-09-22T04:53:16.910Z,3.53
2022-09-22T04:55:45.369Z,3.90
2022-09-22T04:58:14.016Z,3.70
2022-09-22T05:00:42.417Z,3.70
2022-09-22T05:03:13.013Z,4.43
2022-09-22T05:05:41.604Z,3.20
2022-09-22T05:08:10.310Z,3.35
2022-09-22T05:10:38.741Z,3.60
2022-09-22T05:13:07.159Z,3.03
2022-09-22T05:15:35.509Z,3.60
2022-09-22T05:18:03.932Z,2.92
2022-09-22T05:20:33.628Z,3.65
2022-09-22T05:23:02.020Z,3.70
2022-09-22T05:25:30.413Z,4.15
2022-09-22T05:27:58.807Z,4.07
2022-09-22T05:30:29.096Z,4.05
2022-09-22T05:32:57.460Z,4.22
2022-09-22T05:35:26.444Z,4.40
2022-09-22T05:37:56.188Z,4.47
2022-09-22T05:40:26.258Z,4.30
2022-09-22T05:42:55.655Z,4.53
2022-09-22T05:45:24.272Z,4.47
2022-09-22T05:47:53.397Z,4.00
2022-09-22T05:50:23.711Z,4.28
2022-09-22T05:52:52.658Z,4.00
2022-09-22T05:55:22.357Z,4.50
2022-09-22T05:57:57.702Z,4.40
2022-09-22T06:00:26.100Z,4.50
2022-09-22T06:02:54.658Z,4.40
2022-09-22T06:05:23.244Z,4.10
2022-09-22T06:07:58.173Z,3.95
2022-09-22T06:10:27.952Z,4.45
2022-09-22T06:12:59.764Z,4.57
2022-09-22T06:15:28.690Z,4.88
2022-09-22T06:17:57.145Z,4.55
2022-09-22T06:20:25.499Z,4.28
2022-09-22T06:22:55.014Z,4.60
2022-09-22T06:25:23.378Z,4.25
2022-09-22T06:28:05.240Z,4.10
2022-09-22T06:30:34.133Z,4.53
2022-09-22T06:33:03.061Z,4.53
2022-09-22T06:35:37.574Z,4.38
2022-09-22T06:38:06.895Z,3.97
2022-09-22T06:40:36.475Z,4.75
2022-09-22T06:43:11.914Z,4.85
2022-09-22T06:45:40.540Z,4.63
2022-09-22T06:48:10.349Z,4.55
2022-09-22T06:50:40.823Z,3.90
2022-09-22T06:53:11.294Z,4.00
2022-09-22T06:55:43.901Z,4.03
2022-09-22T06:58:14.230Z,3.60
2022-09-22T07:00:43.909Z,3.88
2022-09-22T07:03:17.821Z,3.63
2022-09-22T07:05:53.969Z,3.90
2022-09-22T07:08:22.785Z,3.45
2022-09-22T07:10:55.072Z,3.40
2022-09-22T07:13:24.825Z,3.33
2022-09-22T07:15:53.204Z,3.72
2022-09-22T07:18:21.741Z,3.17
2022-09-22T07:20:50.049Z,3.50
2022-09-22T07:23:21.331Z,3.45
2022-09-22T07:26:00.845Z,2.92
2022-09-22T07:28:31.571Z,2.72
2022-09-22T07:31:05.830Z,3.08
2022-09-22T07:33:34.286Z,3.08
2022-09-22T07:36:05.110Z,3.30
2022-09-22T07:38:36.602Z,3.20
2022-09-22T07:41:06.808Z,3.15
2022-09-22T07:43:36.900Z,3.00
2022-09-22T07:46:05.492Z,3.30
2022-09-22T07:48:37.607Z,2.92
2022-09-22T07:51:11.672Z,3.03
2022-09-22T07:53:42.838Z,2.53
2022-09-22T07:56:13.524Z,2.45
2022-09-22T07:58:46.008Z,2.63
2022-09-22T08:01:14.755Z,2.47
2022-09-22T08:03:43.314Z,2.65
2022-09-22T08:06:12.547Z,2.60
2022-09-22T08:08:42.321Z,2.63
2022-09-22T08:11:13.243Z,3.05
2022-09-22T08:13:44.481Z,2.65
2022-09-22T08:16:13.001Z,2.30
2022-09-22T08:18:41.705Z,2.67
2022-09-22T08:21:10.199Z,2.50
2022-09-22T08:23:38.728Z,2.50
2022-09-22T08:26:08.516Z,2.58
2022-09-22T08:28:37.401Z,2.75
2022-09-22T08:31:13.615Z,2.50
2022-09-22T08:33:42.552Z,2.20
2022-09-22T08:36:11.120Z,2.45
2022-09-22T08:38:39.523Z,2.20
2022-09-22T08:41:17.504Z,2.10
2022-09-22T08:43:47.237Z,2.22
2022-09-22T08:46:20.327Z,2.03
2022-09-22T08:49:07.158Z,1.77
2022-09-22T08:51:53.428Z,2.30
2022-09-22T08:54:23.218Z,2.35
2022-09-22T08:56:55.111Z,1.80
2022-09-22T08:59:24.260Z,1.90
2022-09-22T09:02:02.431Z,1.80
2022-09-22T09:04:42.617Z,2.10
2022-09-22T09:07:13.921Z,1.90
2022-09-22T09:09:48.862Z,1.90
2022-09-22T09:12:26.410Z,1.77
2022-09-22T09:15:02.508Z,1.80
2022-09-22T09:17:33.651Z,1.55
2022-09-22T09:20:03.951Z,1.60
2022-09-22T09:22:34.234Z,1.90
2022-09-22T09:27:54.935Z,1.83
2022-09-22T09:30:23.549Z,1.95
2022-09-22T09:32:54.955Z,2.20
2022-09-22T09:35:26.507Z,2.13
2022-09-22T09:37:58.264Z,2.10
2022-09-22T09:40:27.611Z,1.98
2022-09-22T09:42:58.641Z,1.50
2022-09-22T09:45:29.453Z,1.70
2022-09-22T09:48:04.451Z,1.65
2022-09-22T09:50:33.024Z,1.42
2022-09-22T09:53:01.423Z,1.58
2022-09-22T09:55:29.807Z,1.70
2022-09-22T09:58:06.088Z,1.98
2022-09-22T10:00:34.401Z,1.70
2022-09-22T10:03:07.731Z,1.50
2022-09-22T10:05:37.840Z,1.77
2022-09-22T10:08:16.339Z,1.92
2022-09-22T10:10:44.892Z,1.50
2022-09-22T10:13:25.108Z,1.90
2022-09-22T10:16:04.483Z,1.88
2022-09-22T10:18:37.213Z,1.40
2022-09-22T10:21:07.139Z,1.50
2022-09-22T10:23:35.721Z,1.40
2022-09-22T10:26:15.392Z,1.90
2022-09-22T10:28:43.812Z,1.67
2022-09-22T10:31:20.646Z,1.95
2022-09-22T10:33:57.454Z,1.67
2022-09-22T10:36:26.152Z,1.70
2022-09-22T10:38:58.962Z,1.90
2022-09-22T10:41:34.065Z,1.67
2022-09-22T10:44:27.406Z,1.77
2022-09-22T10:47:06.575Z,1.77
2022-09-22T10:49:42.788Z,2.08
2022-09-22T10:52:15.599Z,1.55
2022-09-22T10:54:49.031Z,1.67
2022-09-22T10:57:23.692Z,2.00
2022-09-22T11:00:04.073Z,2.03
2022-09-22T11:02:47.478Z,1.50
2022-09-22T11:05:43.805Z,1.55
2022-09-22T11:08:43.729Z,1.75
2022-09-22T11:11:38.829Z,1.90
2022-09-22T11:14:13.265Z,1.50
2022-09-22T11:16:54.996Z,1.58
2022-09-22T11:19:33.332Z,1.70
2022-09-22T11:22:11.699Z,1.80
2022-09-22T11:24:47.057Z,1.77
2022-09-22T11:27:20.877Z,1.67
2022-09-22T11:30:03.615Z,1.52
2022-09-22T11:33:03.237Z,1.40
2022-09-22T11:35:42.707Z,1.50
2022-09-22T11:38:20.428Z,1.50
2022-09-22T11:41:04.946Z,1.17
2022-09-22T11:43:42.533Z,1.25
2022-09-22T11:46:13.717Z,1.50
2022-09-22T11:48:48.696Z,1.45
2022-09-22T11:51:34.105Z,1.38
2022-09-22T11:54:14.586Z,1.10
2022-09-22T11:56:45.111Z,1.13
2022-09-22T11:59:18.587Z,1.38
2022-09-22T12:01:49.214Z,1.38
2022-09-22T12:04:21.298Z,1.50
2022-09-22T12:06:52.881Z,1.30
2022-09-22T12:09:30.503Z,1.20
2022-09-22T12:12:03.311Z,1.70
2022-09-22T12:14:32.166Z,1.17
2022-09-22T12:17:02.804Z,1.63
2022-09-22T12:19:36.100Z,1.50
2022-09-22T12:22:08.620Z,1.40
2022-09-22T12:24:39.856Z,1.23
2022-09-22T12:27:12.514Z,1.23
2022-09-22T12:29:42.008Z,1.33
2022-09-22T12:32:23.727Z,1.35
2022-09-22T12:34:53.387Z,1.30
2022-09-22T12:37:29.642Z,1.23
2022-09-22T12:40:03.404Z,1.60
2022-09-22T12:42:35.499Z,1.30
2022-09-22T12:45:08.890Z,1.08
2022-09-22T12:47:38.637Z,1.33
2022-09-22T12:50:08.567Z,1.30
2022-09-22T12:52:54.522Z,1.20
2022-09-22T12:55:38.191Z,1.40
2022-09-22T12:58:26.966Z,1.50
2022-09-22T13:00:57.220Z,1.10
2022-09-22T13:03:42.121Z,1.25
2022-09-22T13:06:25.306Z,1.30
2022-09-22T13:09:10.379Z,1.10
2022-09-22T13:11:57.518Z,1.20
2022-09-22T13:14:44.676Z,1.00
2022-09-22T13:17:28.083Z,1.45
2022-09-22T13:19:57.795Z,1.10
2022-09-22T13:22:26.132Z,1.27
2022-09-22T13:24:54.456Z,1.25
2022-09-22T13:27:22.843Z,1.30
2022-09-22T13:30:00.379Z,1.40
2022-09-22T13:32:29.196Z,1.52
2022-09-22T13:34:58.905Z,1.45
2022-09-22T13:37:27.512Z,1.52
2022-09-22T13:39:57.129Z,1.73
2022-09-22T13:42:32.389Z,1.30
2022-09-22T13:45:01.934Z,1.48
2022-09-22T13:47:30.671Z,1.30
2022-09-22T13:50:04.772Z,1.48
2022-09-22T13:52:34.280Z,1.70
2022-09-22T13:55:08.443Z,1.38
2022-09-22T13:57:38.218Z,1.75
2022-09-22T14:00:08.082Z,1.58
2022-09-22T14:02:36.836Z,1.70
2022-09-22T14:05:08.078Z,1.75
2022-09-22T14:07:49.654Z,1.58
2022-09-22T14:10:24.869Z,1.70
2022-09-22T14:12:53.226Z,1.52
2022-09-22T14:15:40.262Z,1.55
2022-09-22T14:18:15.862Z,1.85
2022-09-22T14:20:46.830Z,1.67
2022-09-22T14:23:19.640Z,1.80
2022-09-22T14:25:47.983Z,1.83
2022-09-22T14:28:20.385Z,3.70
2022-09-22T14:30:49.453Z,1.80
2022-09-22T14:33:22.372Z,1.63
2022-09-22T14:35:52.885Z,2.40
2022-09-22T14:38:25.390Z,1.52
2022-09-22T14:40:55.287Z,1.20
2022-09-22T14:43:24.952Z,1.40
2022-09-22T14:46:00.058Z,1.30
2022-09-22T14:48:33.014Z,1.42
2022-09-22T14:51:07.546Z,1.63
2022-09-22T14:53:39.791Z,1.60
2022-09-22T14:56:09.320Z,1.70
2022-09-22T14:58:40.710Z,1.70
2022-09-22T15:01:36.142Z,1.50
2022-09-22T15:04:08.090Z,1.48
2022-09-22T15:06:39.078Z,1.73
2022-09-22T15:09:08.286Z,1.80
2022-09-22T15:11:48.909Z,1.38
2022-09-22T15:14:36.889Z,1.80
2022-09-22T15:17:19.560Z,1.50
2022-09-22T15:19:50.916Z,1.38
2022-09-22T15:22:20.640Z,1.30
2022-09-22T15:24:49.636Z,1.40
2022-09-22T15:27:19.847Z,1.42
2022-09-22T15:29:49.640Z,1.35
2022-09-22T15:32:17.985Z,1.40
2022-09-22T15:34:46.305Z,1.70
2022-09-22T15:37:15.538Z,1.52
2022-09-22T15:39:45.270Z,1.48
2022-09-22T15:42:13.847Z,1.40
2022-09-22T15:44:42.217Z,1.40
2022-09-22T15:47:16.646Z,1.50
2022-09-22T15:49:45.558Z,1.40
2022-09-22T15:52:13.880Z,1.38
2022-09-22T15:54:44.123Z,1.55
2022-09-22T15:57:15.486Z,1.50
2022-09-22T15:59:43.992Z,1.60
2022-09-22T16:02:12.569Z,1.60
2022-09-22T16:04:40.931Z,1.60
2022-09-22T16:07:12.420Z,1.50
2022-09-22T16:09:40.768Z,1.65
2022-09-22T16:12:11.090Z,1.50
2022-09-22T16:14:41.361Z,1.58
2022-09-22T16:17:09.981Z,1.50
2022-09-22T16:19:38.301Z,1.65
2022-09-22T16:22:06.963Z,1.35
2022-09-22T16:24:35.283Z,1.40
2022-09-22T16:27:04.166Z,1.60
2022-09-22T16:29:37.338Z,1.70
2022-09-22T16:32:07.187Z,1.50
2022-09-22T16:34:37.338Z,1.60
2022-09-22T16:37:05.751Z,2.10
2022-09-22T16:39:34.405Z,1.52
2022-09-22T16:42:03.373Z,1.70
2022-09-22T16:44:31.722Z,1.70
2022-09-22T16:47:01.313Z,1.60
2022-09-22T16:49:33.459Z,1.67
2022-09-22T16:52:01.945Z,1.65
2022-09-22T16:54:30.962Z,1.50
2022-09-22T16:56:59.311Z,1.63
2022-09-22T16:59:28.520Z,1.70
2022-09-22T17:01:56.974Z,1.70
2022-09-22T17:04:25.329Z,1.60
2022-09-22T17:06:55.048Z,1.70
2022-09-22T17:09:23.452Z,1.55
2022-09-22T17:11:52.931Z,1.70
2022-09-22T17:14:23.023Z,1.80
2022-09-22T17:16:52.869Z,1.80
2022-09-22T17:19:22.268Z,1.42
2022-09-22T17:21:51.993Z,1.75
2022-09-22T17:24:21.689Z,1.63
2022-09-22T17:26:50.535Z,1.50
2022-09-22T17:29:21.001Z,1.48
2022-09-22T17:31:49.426Z,2.20
2022-09-22T17:34:17.843Z,1.90
2022-09-22T17:36:46.220Z,1.83
2022-09-22T17:39:17.028Z,1.80
2022-09-22T17:41:46.858Z,1.80
2022-09-22T17:44:21.360Z,1.75
2022-09-22T17:47:07.575Z,1.92
2022-09-22T17:49:53.652Z,2.13
2022-09-22T17:52:39.417Z,1.95
2022-09-22T17:55:11.695Z,2.10
2022-09-22T17:57:42.091Z,2.17
2022-09-22T18:00:11.652Z,2.15
2022-09-22T18:02:40.333Z,1.90
2022-09-22T18:05:09.309Z,2.00
2022-09-22T18:07:38.357Z,2.00
2022-09-22T18:10:07.058Z,2.13
2022-09-22T18:12:35.714Z,2.13
2022-09-22T18:15:05.830Z,2.20
2022-09-22T18:17:35.651Z,2.10
2022-09-22T18:20:04.053Z,2.47
2022-09-22T18:22:32.435Z,2.80
2022-09-22T18:25:00.792Z,2.67
2022-09-22T18:27:29.282Z,2.40
2022-09-22T18:29:59.541Z,2.42
2022-09-22T18:32:29.598Z,3.40
2022-09-22T18:34:57.937Z,3.35
2022-09-22T18:37:26.918Z,3.90
2022-09-22T18:39:55.300Z,4.00
2022-09-22T18:42:24.527Z,4.80
2022-09-22T18:44:52.983Z,4.13
2022-09-22T18:47:23.164Z,4.25
2022-09-22T18:49:52.864Z,3.60
2022-09-22T18:52:23.891Z,3.60
2022-09-22T18:54:54.354Z,3.65
2022-09-22T18:57:25.514Z,3.50
2022-09-22T18:59:57.696Z,3.53
2022-09-22T19:02:26.216Z,3.38
2022-09-22T19:04:56.040Z,3.70
2022-09-22T19:07:42.856Z,4.20
2022-09-22T19:10:12.324Z,3.95
2022-09-22T19:12:40.901Z,3.38
2022-09-22T19:15:13.413Z,3.90
2022-09-22T19:17:44.316Z,3.65
2022-09-22T19:20:17.309Z,3.20
2022-09-22T19:22:45.962Z,2.95
2022-09-22T19:25:14.946Z,2.90
2022-09-22T19:27:43.492Z,3.05
2022-09-22T19:30:12.420Z,3.40
2022-09-22T19:32:41.372Z,3.17
2022-09-22T19:35:10.836Z,3.05
2022-09-22T19:37:40.793Z,3.35
2022-09-22T19:40:13.155Z,3.83
2022-09-22T19:42:43.247Z,3.83
2022-09-22T19:45:11.684Z,4.18
2022-09-22T19:47:40.832Z,4.07
2022-09-22T19:50:09.812Z,3.83
2022-09-22T19:52:38.822Z,3.65
2022-09-22T19:55:11.515Z,3.85
2022-09-22T19:57:41.377Z,3.97
2022-09-22T20:00:11.001Z,4.75
2022-09-22T20:02:39.471Z,3.85
2022-09-22T20:05:15.993Z,4.88
2022-09-22T20:07:44.493Z,4.15
2022-09-22T20:10:15.552Z,3.88
2022-09-22T20:12:44.207Z,4.35
2022-09-22T20:15:15.635Z,4.47
2022-09-22T20:17:46.435Z,4.60
2022-09-22T20:20:15.649Z,5.15
2022-09-22T20:22:44.486Z,5.45
2022-09-22T20:25:22.074Z,5.30
2022-09-22T20:27:50.807Z,5.28
2022-09-22T20:30:19.734Z,5.13
2022-09-22T20:32:48.611Z,4.55
2022-09-22T20:35:18.010Z,4.50
2022-09-22T20:37:46.464Z,4.28
2022-09-22T20:40:15.580Z,4.45
2022-09-22T20:42:45.723Z,4.20
2022-09-22T20:45:14.141Z,4.45
2022-09-22T20:47:43.003Z,3.75
2022-09-22T20:50:12.435Z,4.72
2022-09-22T20:52:42.704Z,4.15
2022-09-22T20:55:11.626Z,4.07
2022-09-22T20:57:40.351Z,3.92
2022-09-22T21:00:12.212Z,3.97
2022-09-22T21:02:40.622Z,3.78
2022-09-22T21:05:09.504Z,3.58
2022-09-22T21:07:37.879Z,3.40
2022-09-22T21:10:24.395Z,3.50
2022-09-22T21:12:56.121Z,3.30
2022-09-22T21:15:26.006Z,3.20
2022-09-22T21:17:54.691Z,3.25
2022-09-22T21:20:23.294Z,3.40
2022-09-22T21:22:54.009Z,2.90
2022-09-22T21:25:22.420Z,3.10
2022-09-22T21:27:50.777Z,3.65
2022-09-22T21:30:19.135Z,3.38
2022-09-22T21:32:49.029Z,3.03
2022-09-22T21:35:17.406Z,3.17
2022-09-22T21:37:45.890Z,3.20
2022-09-22T21:40:14.445Z,3.35
2022-09-22T21:42:43.031Z,3.33
2022-09-22T21:45:12.933Z,2.83
2022-09-22T21:47:41.296Z,2.95
2022-09-22T21:50:11.589Z,3.22
2022-09-22T21:52:39.946Z,2.85
2022-09-22T21:55:08.660Z,2.92
2022-09-22T21:57:36.996Z,2.97
2022-09-22T22:00:06.646Z,3.00
2022-09-22T22:02:56.785Z,3.17
2022-09-22T22:05:27.297Z,2.97
2022-09-22T22:07:55.651Z,3.00
2022-09-22T22:10:24.184Z,3.45
2022-09-22T22:12:52.564Z,3.13
2022-09-22T22:15:20.896Z,2.70
2022-09-22T22:17:49.263Z,3.00
2022-09-22T22:20:17.622Z,2.88
2022-09-22T22:22:47.346Z,3.50
2022-09-22T22:25:19.564Z,3.30
2022-09-22T22:27:47.896Z,3.55
2022-09-22T22:30:19.023Z,3.20
2022-09-22T22:32:47.465Z,2.88
2022-09-22T22:35:15.803Z,2.95
2022-09-22T22:37:45.780Z,2.90
2022-09-22T22:40:15.693Z,3.10
2022-09-22T22:42:44.121Z,2.70
2022-09-22T22:45:12.478Z,2.70
2022-09-22T22:47:40.853Z,3.20
2022-09-22T22:50:10.077Z,2.90
2022-09-22T22:52:42.203Z,3.13
2022-09-22T22:55:10.886Z,3.08
2022-09-22T22:57:40.724Z,3.67
2022-09-22T23:00:09.808Z,2.88
2022-09-22T23:02:38.708Z,2.97
2022-09-22T23:05:07.756Z,3.13
2022-09-22T23:07:38.254Z,3.25
2022-09-22T23:10:10.544Z,2.67
2022-09-22T23:12:40.319Z,3.25
2022-09-22T23:15:10.911Z,2.88
2022-09-22T23:17:39.534Z,3.15
2022-09-22T23:20:11.521Z,2.58
2022-09-22T23:22:39.926Z,2.60
2022-09-22T23:25:09.752Z,3.10
2022-09-22T23:27:38.128Z,2.72
2022-09-22T23:30:06.929Z,2.70
2022-09-22T23:32:36.638Z,2.50
2022-09-22T23:35:06.175Z,2.92
2022-09-22T23:37:34.612Z,2.33
2022-09-22T23:40:03.261Z,2.90
2022-09-22T23:42:31.634Z,2.90
2022-09-22T23:45:00.258Z,2.60
2022-09-22T23:47:28.617Z,2.90
2022-09-22T23:50:00.311Z,2.45
2022-09-22T23:52:28.707Z,2.50
2022-09-22T23:54:57.025Z,2.42
2022-09-22T23:57:25.388Z,2.70
2022-09-22T23:59:53.714Z,2.65
